sensor_id;sensor_type;location;lat;lon;timestamp;pressure;altitude;pressure_sealevel;temperature;humidity
58092;BME280;43896;48.178;11.578;2022-08-19T00:00:32;95417.97;;;20.24;75.74
58092;BME280;43896;48.178;11.578;2022-08-19T00:03:00;95395.25;;;19.92;76.34
58092;BME280;43896;48.178;11.578;2022-08-19T00:05:33;95431.50;;;20.11;76.06
58092;BME280;43896;48.178;11.578;2022-08-19T00:07:59;95440.25;;;20.18;75.76
58092;BME280;43896;48.178;11.578;2022-08-19T00:10:36;95415.22;;;20.01;75.93
58092;BME280;43896;48.178;11.578;2022-08-19T00:13:02;95435.63;;;20.26;75.68
58092;BME280;43896;48.178;11.578;2022-08-19T00:15:33;95424.38;;;19.93;76.18
58092;BME280;43896;48.178;11.578;2022-08-19T00:18:13;95426.53;;;20.03;76.11
58092;BME280;43896;48.178;11.578;2022-08-19T00:24:34;95408.19;;;20.07;75.54
58092;BME280;43896;48.178;11.578;2022-08-19T00:27:16;95374.72;;;19.92;75.52
58092;BME280;43896;48.178;11.578;2022-08-19T00:30:05;95405.78;;;20.17;75.39
58092;BME280;43896;48.178;11.578;2022-08-19T00:32:33;95383.47;;;20.11;75.20
58092;BME280;43896;48.178;11.578;2022-08-19T00:35:05;95363.28;;;20.15;75.49
58092;BME280;43896;48.178;11.578;2022-08-19T00:37:33;95378.50;;;20.15;76.20
58092;BME280;43896;48.178;11.578;2022-08-19T00:40:00;95387.22;;;20.22;75.64
58092;BME280;43896;48.178;11.578;2022-08-19T00:45:23;95369.41;;;20.04;75.33
58092;BME280;43896;48.178;11.578;2022-08-19T00:47:57;95348.75;;;19.99;75.39
58092;BME280;43896;48.178;11.578;2022-08-19T00:50:31;95374.19;;;20.14;75.44
58092;BME280;43896;48.178;11.578;2022-08-19T00:53:06;95354.56;;;20.08;75.37
58092;BME280;43896;48.178;11.578;2022-08-19T00:55:51;95333.09;;;20.03;75.18
58092;BME280;43896;48.178;11.578;2022-08-19T00:58:25;95352.00;;;20.25;75.11
58092;BME280;43896;48.178;11.578;2022-08-19T01:01:04;95363.63;;;20.07;75.72
58092;BME280;43896;48.178;11.578;2022-08-19T01:03:41;95365.81;;;20.10;75.81
58092;BME280;43896;48.178;11.578;2022-08-19T01:06:07;95337.25;;;19.99;75.69
58092;BME280;43896;48.178;11.578;2022-08-19T01:08:33;95358.16;;;20.14;75.46
58092;BME280;43896;48.178;11.578;2022-08-19T01:11:09;95354.91;;;20.00;75.82
58092;BME280;43896;48.178;11.578;2022-08-19T01:13:35;95335.03;;;19.84;75.69
58092;BME280;43896;48.178;11.578;2022-08-19T01:16:05;95343.03;;;19.96;75.51
58092;BME280;43896;48.178;11.578;2022-08-19T01:18:40;95352.94;;;20.07;75.71
58092;BME280;43896;48.178;11.578;2022-08-19T01:21:16;95345.25;;;19.99;76.05
58092;BME280;43896;48.178;11.578;2022-08-19T01:24:09;95327.59;;;19.86;75.88
58092;BME280;43896;48.178;11.578;2022-08-19T01:26:42;95322.88;;;19.70;75.98
58092;BME280;43896;48.178;11.578;2022-08-19T01:29:28;95340.47;;;19.77;76.14
58092;BME280;43896;48.178;11.578;2022-08-19T01:31:54;95342.91;;;19.79;76.36
58092;BME280;43896;48.178;11.578;2022-08-19T01:34:19;95348.72;;;19.88;75.82
58092;BME280;43896;48.178;11.578;2022-08-19T01:36:54;95370.34;;;19.98;75.56
58092;BME280;43896;48.178;11.578;2022-08-19T01:39:22;95351.34;;;19.76;75.68
58092;BME280;43896;48.178;11.578;2022-08-19T01:41:56;95377.16;;;19.94;75.83
58092;BME280;43896;48.178;11.578;2022-08-19T01:44:32;95380.75;;;19.88;75.96
58092;BME280;43896;48.178;11.578;2022-08-19T01:47:16;95367.59;;;19.74;76.39
58092;BME280;43896;48.178;11.578;2022-08-19T01:49:44;95399.69;;;19.98;75.87
58092;BME280;43896;48.178;11.578;2022-08-19T01:52:10;95386.22;;;19.93;75.53
58092;BME280;43896;48.178;11.578;2022-08-19T01:57:42;95390.59;;;19.87;75.63
58092;BME280;43896;48.178;11.578;2022-08-19T02:00:30;95393.25;;;19.87;76.37
58092;BME280;43896;48.178;11.578;2022-08-19T02:03:14;95406.41;;;20.00;75.65
58092;BME280;43896;48.178;11.578;2022-08-19T02:05:45;95375.06;;;19.96;75.61
58092;BME280;43896;48.178;11.578;2022-08-19T02:08:24;95380.31;;;20.02;75.49
58092;BME280;43896;48.178;11.578;2022-08-19T02:10:57;95396.22;;;20.09;75.91
58092;BME280;43896;48.178;11.578;2022-08-19T02:13:33;95373.44;;;19.95;75.41
58092;BME280;43896;48.178;11.578;2022-08-19T02:16:05;95413.44;;;20.13;75.18
58092;BME280;43896;48.178;11.578;2022-08-19T02:18:31;95406.69;;;20.11;75.16
58092;BME280;43896;48.178;11.578;2022-08-19T02:21:04;95421.78;;;20.17;74.81
58092;BME280;43896;48.178;11.578;2022-08-19T02:23:37;95419.44;;;20.09;75.44
58092;BME280;43896;48.178;11.578;2022-08-19T02:26:06;95410.72;;;20.01;75.25
58092;BME280;43896;48.178;11.578;2022-08-19T02:28:43;95411.75;;;20.00;74.92
58092;BME280;43896;48.178;11.578;2022-08-19T02:31:16;95414.75;;;19.92;74.95
58092;BME280;43896;48.178;11.578;2022-08-19T02:33:48;95403.00;;;19.81;74.71
58092;BME280;43896;48.178;11.578;2022-08-19T02:36:19;95436.50;;;20.08;74.82
58092;BME280;43896;48.178;11.578;2022-08-19T02:39:07;95405.03;;;19.98;74.38
58092;BME280;43896;48.178;11.578;2022-08-19T02:41:37;95389.56;;;19.88;74.38
58092;BME280;43896;48.178;11.578;2022-08-19T02:44:05;95407.69;;;19.98;74.97
58092;BME280;43896;48.178;11.578;2022-08-19T02:46:37;95373.41;;;19.83;74.99
58092;BME280;43896;48.178;11.578;2022-08-19T02:49:06;95355.09;;;19.86;74.95
58092;BME280;43896;48.178;11.578;2022-08-19T02:51:46;95336.06;;;19.83;74.33
58092;BME280;43896;48.178;11.578;2022-08-19T02:54:28;95345.31;;;19.80;75.23
58092;BME280;43896;48.178;11.578;2022-08-19T02:57:01;95342.56;;;19.87;74.89
58092;BME280;43896;48.178;11.578;2022-08-19T02:59:34;95347.91;;;19.87;74.55
58092;BME280;43896;48.178;11.578;2022-08-19T03:02:05;95336.63;;;19.85;74.85
58092;BME280;43896;48.178;11.578;2022-08-19T03:08:12;95358.47;;;19.94;74.42
58092;BME280;43896;48.178;11.578;2022-08-19T03:10:49;95342.56;;;19.87;74.22
58092;BME280;43896;48.178;11.578;2022-08-19T03:13:25;95373.94;;;20.03;74.01
58092;BME280;43896;48.178;11.578;2022-08-19T03:16:03;95355.09;;;19.86;74.03
58092;BME280;43896;48.178;11.578;2022-08-19T03:18:40;95348.25;;;19.91;74.14
58092;BME280;43896;48.178;11.578;2022-08-19T03:21:18;95373.00;;;19.98;74.78
58092;BME280;43896;48.178;11.578;2022-08-19T03:23:50;95366.59;;;19.99;74.57
58092;BME280;43896;48.178;11.578;2022-08-19T03:26:33;95369.84;;;19.89;74.19
58092;BME280;43896;48.178;11.578;2022-08-19T03:29:09;95370.41;;;19.79;74.58
58092;BME280;43896;48.178;11.578;2022-08-19T03:31:54;95379.44;;;19.78;74.58
58092;BME280;43896;48.178;11.578;2022-08-19T03:34:28;95379.56;;;19.83;74.39
58092;BME280;43896;48.178;11.578;2022-08-19T03:37:11;95366.44;;;19.82;74.44
58092;BME280;43896;48.178;11.578;2022-08-19T03:39:57;95385.75;;;19.96;74.31
58092;BME280;43896;48.178;11.578;2022-08-19T03:42:39;95366.78;;;19.85;74.25
58092;BME280;43896;48.178;11.578;2022-08-19T03:45:17;95382.03;;;19.97;74.42
58092;BME280;43896;48.178;11.578;2022-08-19T03:50:51;95360.28;;;19.81;74.66
58092;BME280;43896;48.178;11.578;2022-08-19T03:53:30;95391.59;;;20.04;74.45
58092;BME280;43896;48.178;11.578;2022-08-19T03:56:08;95368.88;;;19.83;74.57
58092;BME280;43896;48.178;11.578;2022-08-19T03:59:04;95379.38;;;19.97;74.25
58092;BME280;43896;48.178;11.578;2022-08-19T04:01:43;95375.91;;;19.96;74.27
58092;BME280;43896;48.178;11.578;2022-08-19T04:04:28;95370.56;;;19.96;74.69
58092;BME280;43896;48.178;11.578;2022-08-19T04:07:02;95366.59;;;19.99;74.34
58092;BME280;43896;48.178;11.578;2022-08-19T04:09:36;95389.41;;;20.13;74.22
58092;BME280;43896;48.178;11.578;2022-08-19T04:12:30;95359.97;;;19.90;74.32
58092;BME280;43896;48.178;11.578;2022-08-19T04:15:20;95382.28;;;20.07;74.51
58092;BME280;43896;48.178;11.578;2022-08-19T04:18:15;95376.13;;;19.95;74.86
58092;BME280;43896;48.178;11.578;2022-08-19T04:21:19;95380.06;;;20.04;74.70
58092;BME280;43896;48.178;11.578;2022-08-19T04:24:17;95350.09;;;19.90;74.46
58092;BME280;43896;48.178;11.578;2022-08-19T04:27:06;95369.97;;;20.06;74.51
58092;BME280;43896;48.178;11.578;2022-08-19T04:29:53;95383.72;;;20.10;74.90
58092;BME280;43896;48.178;11.578;2022-08-19T04:33:09;95391.47;;;20.11;75.19
58092;BME280;43896;48.178;11.578;2022-08-19T04:36:01;95390.72;;;19.92;76.23
58092;BME280;43896;48.178;11.578;2022-08-19T04:38:34;95373.66;;;19.81;75.24
58092;BME280;43896;48.178;11.578;2022-08-19T04:41:30;95372.75;;;19.88;74.36
58092;BME280;43896;48.178;11.578;2022-08-19T04:44:20;95411.66;;;20.07;74.69
58092;BME280;43896;48.178;11.578;2022-08-19T04:47:35;95402.50;;;20.03;74.44
58092;BME280;43896;48.178;11.578;2022-08-19T04:50:11;95419.75;;;20.00;74.98
58092;BME280;43896;48.178;11.578;2022-08-19T04:56:26;95425.78;;;19.96;75.70
58092;BME280;43896;48.178;11.578;2022-08-19T04:59:33;95417.13;;;19.82;75.86
58092;BME280;43896;48.178;11.578;2022-08-19T05:02:19;95413.81;;;19.86;75.58
58092;BME280;43896;48.178;11.578;2022-08-19T05:04:44;95439.72;;;19.98;75.51
58092;BME280;43896;48.178;11.578;2022-08-19T05:07:10;95443.69;;;20.07;74.87
58092;BME280;43896;48.178;11.578;2022-08-19T05:09:35;95436.34;;;20.02;74.68
58092;BME280;43896;48.178;11.578;2022-08-19T05:12:01;95446.59;;;20.05;74.56
58092;BME280;43896;48.178;11.578;2022-08-19T05:14:27;95454.72;;;20.11;75.01
58092;BME280;43896;48.178;11.578;2022-08-19T05:16:52;95451.84;;;20.12;74.46
58092;BME280;43896;48.178;11.578;2022-08-19T05:19:17;95431.16;;;20.08;74.06
58092;BME280;43896;48.178;11.578;2022-08-19T05:22:01;95431.75;;;20.10;74.44
58092;BME280;43896;48.178;11.578;2022-08-19T05:24:45;95447.56;;;20.23;74.17
58092;BME280;43896;48.178;11.578;2022-08-19T05:27:10;95451.28;;;20.22;73.68
58092;BME280;43896;48.178;11.578;2022-08-19T05:29:36;95452.31;;;20.21;73.43
58092;BME280;43896;48.178;11.578;2022-08-19T05:32:03;95440.84;;;20.20;73.49
58092;BME280;43896;48.178;11.578;2022-08-19T05:34:30;95433.84;;;20.19;73.83
58092;BME280;43896;48.178;11.578;2022-08-19T05:36:59;95434.91;;;20.18;73.62
58092;BME280;43896;48.178;11.578;2022-08-19T05:39:28;95434.09;;;20.18;73.66
58092;BME280;43896;48.178;11.578;2022-08-19T05:41:59;95432.81;;;20.20;73.76
58092;BME280;43896;48.178;11.578;2022-08-19T05:44:28;95424.13;;;20.13;74.42
58092;BME280;43896;48.178;11.578;2022-08-19T05:46:57;95424.59;;;20.22;73.82
58092;BME280;43896;48.178;11.578;2022-08-19T05:49:23;95422.25;;;20.14;73.92
58092;BME280;43896;48.178;11.578;2022-08-19T05:51:50;95430.75;;;20.22;73.99
58092;BME280;43896;48.178;11.578;2022-08-19T05:54:17;95428.88;;;20.23;73.84
58092;BME280;43896;48.178;11.578;2022-08-19T05:56:43;95426.78;;;20.25;73.50
58092;BME280;43896;48.178;11.578;2022-08-19T05:59:10;95427.63;;;20.26;73.49
58092;BME280;43896;48.178;11.578;2022-08-19T06:01:40;95429.84;;;20.29;73.56
58092;BME280;43896;48.178;11.578;2022-08-19T06:04:06;95435.63;;;20.26;73.49
58092;BME280;43896;48.178;11.578;2022-08-19T06:06:33;95427.72;;;20.19;73.56
58092;BME280;43896;48.178;11.578;2022-08-19T06:09:00;95439.44;;;20.18;73.89
58092;BME280;43896;48.178;11.578;2022-08-19T06:11:38;95427.03;;;20.23;73.82
58092;BME280;43896;48.178;11.578;2022-08-19T06:14:06;95428.53;;;20.19;73.48
58092;BME280;43896;48.178;11.578;2022-08-19T06:16:35;95428.66;;;20.24;73.39
58092;BME280;43896;48.178;11.578;2022-08-19T06:19:03;95445.84;;;20.29;73.72
58092;BME280;43896;48.178;11.578;2022-08-19T06:21:30;95441.41;;;20.22;73.67
58092;BME280;43896;48.178;11.578;2022-08-19T06:23:56;95443.06;;;20.23;73.29
58092;BME280;43896;48.178;11.578;2022-08-19T06:26:22;95448.41;;;20.23;73.75
58092;BME280;43896;48.178;11.578;2022-08-19T06:28:49;95447.34;;;20.24;73.68
58092;BME280;43896;48.178;11.578;2022-08-19T06:31:24;95442.13;;;20.30;73.69
58092;BME280;43896;48.178;11.578;2022-08-19T06:33:49;95438.06;;;20.27;73.43
58092;BME280;43896;48.178;11.578;2022-08-19T06:36:20;95442.22;;;20.23;73.34
58092;BME280;43896;48.178;11.578;2022-08-19T06:38:45;95424.25;;;20.18;74.04
58092;BME280;43896;48.178;11.578;2022-08-19T06:41:10;95437.00;;;20.28;73.77
58092;BME280;43896;48.178;11.578;2022-08-19T06:43:36;95443.75;;;20.31;73.99
58092;BME280;43896;48.178;11.578;2022-08-19T06:46:01;95437.97;;;20.34;73.61
58092;BME280;43896;48.178;11.578;2022-08-19T06:48:28;95437.50;;;20.37;73.70
58092;BME280;43896;48.178;11.578;2022-08-19T06:50:54;95440.50;;;20.40;74.06
58092;BME280;43896;48.178;11.578;2022-08-19T06:53:19;95442.38;;;20.40;73.58
58092;BME280;43896;48.178;11.578;2022-08-19T06:55:45;95432.63;;;20.34;73.07
58092;BME280;43896;48.178;11.578;2022-08-19T06:58:11;95447.72;;;20.40;73.16
58092;BME280;43896;48.178;11.578;2022-08-19T07:00:36;95449.59;;;20.39;73.24
58092;BME280;43896;48.178;11.578;2022-08-19T07:03:02;95442.03;;;20.36;73.61
58092;BME280;43896;48.178;11.578;2022-08-19T07:05:27;95436.81;;;20.41;73.84
58092;BME280;43896;48.178;11.578;2022-08-19T07:07:52;95438.09;;;20.39;74.07
58092;BME280;43896;48.178;11.578;2022-08-19T07:10:18;95436.81;;;20.41;74.05
58092;BME280;43896;48.178;11.578;2022-08-19T07:12:44;95439.84;;;20.45;74.50
58092;BME280;43896;48.178;11.578;2022-08-19T07:15:10;95432.50;;;20.40;74.68
58092;BME280;43896;48.178;11.578;2022-08-19T07:17:36;95432.75;;;20.39;75.13
58092;BME280;43896;48.178;11.578;2022-08-19T07:20:04;95426.47;;;20.45;75.16
58092;BME280;43896;48.178;11.578;2022-08-19T07:22:30;95416.03;;;20.43;74.38
58092;BME280;43896;48.178;11.578;2022-08-19T07:24:56;95408.97;;;20.49;74.07
58092;BME280;43896;48.178;11.578;2022-08-19T07:27:21;95405.94;;;20.57;75.13
58092;BME280;43896;48.178;11.578;2022-08-19T07:29:46;95407.09;;;20.38;76.35
58092;BME280;43896;48.178;11.578;2022-08-19T07:32:12;95393.50;;;20.39;76.58
58092;BME280;43896;48.178;11.578;2022-08-19T07:34:37;95385.81;;;20.31;76.19
58092;BME280;43896;48.178;11.578;2022-08-19T07:37:05;95387.22;;;20.46;76.89
58092;BME280;43896;48.178;11.578;2022-08-19T07:39:33;95393.91;;;20.67;76.76
58092;BME280;43896;48.178;11.578;2022-08-19T07:42:02;95391.34;;;20.72;76.25
58092;BME280;43896;48.178;11.578;2022-08-19T07:44:28;95387.16;;;20.76;75.11
58092;BME280;43896;48.178;11.578;2022-08-19T07:46:56;95395.84;;;20.83;75.79
58092;BME280;43896;48.178;11.578;2022-08-19T07:49:22;95398.63;;;20.88;75.24
58092;BME280;43896;48.178;11.578;2022-08-19T07:51:54;95411.53;;;20.91;74.27
58092;BME280;43896;48.178;11.578;2022-08-19T07:54:23;95407.72;;;20.87;73.83
58092;BME280;43896;48.178;11.578;2022-08-19T07:56:48;95410.84;;;20.84;75.29
58092;BME280;43896;48.178;11.578;2022-08-19T07:59:16;95411.88;;;20.83;75.64
58092;BME280;43896;48.178;11.578;2022-08-19T08:01:43;95413.75;;;20.71;75.53
58092;BME280;43896;48.178;11.578;2022-08-19T08:04:10;95417.22;;;20.59;75.87
58092;BME280;43896;48.178;11.578;2022-08-19T08:06:54;95423.28;;;20.67;76.24
58092;BME280;43896;48.178;11.578;2022-08-19T08:09:42;95418.19;;;20.65;75.47
58092;BME280;43896;48.178;11.578;2022-08-19T08:12:11;95415.41;;;20.72;75.14
58092;BME280;43896;48.178;11.578;2022-08-19T08:14:50;95417.72;;;20.68;75.58
58092;BME280;43896;48.178;11.578;2022-08-19T08:17:17;95419.22;;;20.64;75.76
58092;BME280;43896;48.178;11.578;2022-08-19T08:19:44;95424.78;;;20.63;76.01
58092;BME280;43896;48.178;11.578;2022-08-19T08:22:11;95424.41;;;20.59;75.33
58092;BME280;43896;48.178;11.578;2022-08-19T08:25:00;95435.19;;;20.52;75.53
58092;BME280;43896;48.178;11.578;2022-08-19T08:27:26;95436.25;;;20.51;74.85
58092;BME280;43896;48.178;11.578;2022-08-19T08:29:56;95430.06;;;20.51;75.29
58092;BME280;43896;48.178;11.578;2022-08-19T08:32:22;95428.69;;;20.48;75.34
58092;BME280;43896;48.178;11.578;2022-08-19T08:34:47;95434.97;;;20.54;75.33
58092;BME280;43896;48.178;11.578;2022-08-19T08:37:13;95443.81;;;20.54;75.65
58092;BME280;43896;48.178;11.578;2022-08-19T08:39:38;95440.41;;;20.47;75.66
58092;BME280;43896;48.178;11.578;2022-08-19T08:42:14;95437.97;;;20.34;76.60
58092;BME280;43896;48.178;11.578;2022-08-19T08:44:54;95445.97;;;20.46;76.14
58092;BME280;43896;48.178;11.578;2022-08-19T08:47:24;95455.06;;;20.45;75.51
58092;BME280;43896;48.178;11.578;2022-08-19T08:49:56;95450.88;;;20.49;75.60
58092;BME280;43896;48.178;11.578;2022-08-19T08:52:29;95458.75;;;20.43;75.49
58092;BME280;43896;48.178;11.578;2022-08-19T08:54:58;95455.88;;;20.45;76.41
58092;BME280;43896;48.178;11.578;2022-08-19T08:57:35;95448.66;;;20.46;76.68
58092;BME280;43896;48.178;11.578;2022-08-19T09:00:07;95452.41;;;20.56;77.18
58092;BME280;43896;48.178;11.578;2022-08-19T09:02:33;95458.09;;;20.60;76.31
58092;BME280;43896;48.178;11.578;2022-08-19T09:04:59;95454.38;;;20.61;76.08
58092;BME280;43896;48.178;11.578;2022-08-19T09:12:40;95459.00;;;20.54;76.83
58092;BME280;43896;48.178;11.578;2022-08-19T09:15:11;95468.78;;;20.60;76.17
58092;BME280;43896;48.178;11.578;2022-08-19T09:17:37;95468.38;;;20.63;76.70
58092;BME280;43896;48.178;11.578;2022-08-19T09:22:32;95464.25;;;20.60;75.75
58092;BME280;43896;48.178;11.578;2022-08-19T09:24:58;95459.34;;;20.57;75.58
58092;BME280;43896;48.178;11.578;2022-08-19T09:27:25;95466.00;;;20.55;75.76
58092;BME280;43896;48.178;11.578;2022-08-19T09:29:51;95470.06;;;20.57;75.92
58092;BME280;43896;48.178;11.578;2022-08-19T09:32:19;95460.88;;;20.53;76.01
58092;BME280;43896;48.178;11.578;2022-08-19T09:34:44;95470.06;;;20.57;75.80
58092;BME280;43896;48.178;11.578;2022-08-19T09:37:10;95474.59;;;20.57;76.89
58092;BME280;43896;48.178;11.578;2022-08-19T09:39:37;95463.31;;;20.55;76.84
58092;BME280;43896;48.178;11.578;2022-08-19T09:42:02;95471.69;;;20.58;76.04
58092;BME280;43896;48.178;11.578;2022-08-19T09:44:28;95465.88;;;20.61;75.46
58092;BME280;43896;48.178;11.578;2022-08-19T09:46:54;95458.91;;;20.60;75.66
58092;BME280;43896;48.178;11.578;2022-08-19T09:49:20;95450.25;;;20.65;75.98
58092;BME280;43896;48.178;11.578;2022-08-19T09:51:49;95453.97;;;20.76;76.13
58092;BME280;43896;48.178;11.578;2022-08-19T09:54:15;95454.28;;;20.68;76.40
58092;BME280;43896;48.178;11.578;2022-08-19T09:56:40;95448.03;;;20.74;76.76
58092;BME280;43896;48.178;11.578;2022-08-19T09:59:05;95447.22;;;20.73;76.38
58092;BME280;43896;48.178;11.578;2022-08-19T10:01:32;95450.72;;;20.74;76.99
58092;BME280;43896;48.178;11.578;2022-08-19T10:03:59;95459.31;;;20.88;77.26
58092;BME280;43896;48.178;11.578;2022-08-19T10:06:27;95460.69;;;20.90;77.04
58092;BME280;43896;48.178;11.578;2022-08-19T10:08:56;95464.78;;;20.93;77.25
58092;BME280;43896;48.178;11.578;2022-08-19T10:11:22;95474.91;;;20.91;77.21
58092;BME280;43896;48.178;11.578;2022-08-19T10:13:47;95475.25;;;21.06;76.83
58092;BME280;43896;48.178;11.578;2022-08-19T10:16:17;95476.97;;;21.24;78.24
58092;BME280;43896;48.178;11.578;2022-08-19T10:18:43;95470.13;;;21.28;77.80
58092;BME280;43896;48.178;11.578;2022-08-19T10:21:15;95467.16;;;21.42;77.44
58092;BME280;43896;48.178;11.578;2022-08-19T10:23:44;95459.84;;;21.49;76.54
58092;BME280;43896;48.178;11.578;2022-08-19T10:26:11;95462.28;;;21.62;76.88
58092;BME280;43896;48.178;11.578;2022-08-19T10:28:37;95463.56;;;21.60;77.25
58092;BME280;43896;48.178;11.578;2022-08-19T10:31:23;95470.91;;;21.52;75.30
58092;BME280;43896;48.178;11.578;2022-08-19T10:33:49;95470.22;;;21.86;73.73
58092;BME280;43896;48.178;11.578;2022-08-19T10:36:18;95457.19;;;22.18;71.18
58092;BME280;43896;48.178;11.578;2022-08-19T10:38:49;95461.31;;;22.55;71.66
58092;BME280;43896;48.178;11.578;2022-08-19T10:41:20;95458.97;;;22.58;69.74
58092;BME280;43896;48.178;11.578;2022-08-19T10:43:47;95449.44;;;22.84;70.71
58092;BME280;43896;48.178;11.578;2022-08-19T10:46:15;95444.75;;;22.58;70.93
58092;BME280;43896;48.178;11.578;2022-08-19T10:48:42;95458.81;;;22.82;69.86
58092;BME280;43896;48.178;11.578;2022-08-19T10:51:08;95449.72;;;22.66;70.04
58092;BME280;43896;48.178;11.578;2022-08-19T10:53:52;95456.53;;;22.74;70.40
58092;BME280;43896;48.178;11.578;2022-08-19T10:56:18;95458.16;;;22.58;70.71
58092;BME280;43896;48.178;11.578;2022-08-19T10:59:03;95458.13;;;22.41;70.98
58092;BME280;43896;48.178;11.578;2022-08-19T11:01:30;95455.94;;;22.55;70.44
58092;BME280;43896;48.178;11.578;2022-08-19T11:03:56;95440.59;;;22.33;69.55
58092;BME280;43896;48.178;11.578;2022-08-19T11:06:24;95438.22;;;22.88;68.75
58092;BME280;43896;48.178;11.578;2022-08-19T11:08:51;95443.44;;;22.94;69.09
58092;BME280;43896;48.178;11.578;2022-08-19T11:11:16;95455.03;;;22.83;69.13
58092;BME280;43896;48.178;11.578;2022-08-19T11:13:42;95415.28;;;22.58;67.55
58092;BME280;43896;48.178;11.578;2022-08-19T11:16:12;95445.56;;;22.58;68.10
58092;BME280;43896;48.178;11.578;2022-08-19T11:18:44;95438.22;;;22.54;68.59
58092;BME280;43896;48.178;11.578;2022-08-19T11:21:22;95429.94;;;22.38;70.45
58092;BME280;43896;48.178;11.578;2022-08-19T11:23:49;95426.31;;;22.78;68.93
58092;BME280;43896;48.178;11.578;2022-08-19T11:26:16;95434.66;;;22.99;68.64
58092;BME280;43896;48.178;11.578;2022-08-19T11:28:41;95439.00;;;23.05;67.95
58092;BME280;43896;48.178;11.578;2022-08-19T11:31:17;95434.53;;;23.28;68.65
58092;BME280;43896;48.178;11.578;2022-08-19T11:33:43;95439.41;;;23.31;67.19
58092;BME280;43896;48.178;11.578;2022-08-19T11:36:08;95444.75;;;23.31;67.73
58092;BME280;43896;48.178;11.578;2022-08-19T11:38:35;95438.69;;;23.18;67.37
58092;BME280;43896;48.178;11.578;2022-08-19T11:41:03;95442.72;;;22.82;66.21
58092;BME280;43896;48.178;11.578;2022-08-19T11:43:28;95438.41;;;22.64;67.29
58092;BME280;43896;48.178;11.578;2022-08-19T11:45:54;95437.44;;;22.53;66.71
58092;BME280;43896;48.178;11.578;2022-08-19T11:48:21;95441.34;;;22.62;67.56
58092;BME280;43896;48.178;11.578;2022-08-19T11:50:48;95428.34;;;22.54;69.53
58092;BME280;43896;48.178;11.578;2022-08-19T11:53:13;95440.44;;;22.91;67.76
58092;BME280;43896;48.178;11.578;2022-08-19T11:55:39;95438.63;;;22.79;66.79
58092;BME280;43896;48.178;11.578;2022-08-19T11:58:05;95439.03;;;22.88;67.07
58092;BME280;43896;48.178;11.578;2022-08-19T12:00:33;95434.13;;;22.63;67.45
58092;BME280;43896;48.178;11.578;2022-08-19T12:03:00;95447.09;;;22.54;68.70
58092;BME280;43896;48.178;11.578;2022-08-19T12:05:25;95438.22;;;22.54;68.61
58092;BME280;43896;48.178;11.578;2022-08-19T12:07:51;95458.13;;;22.41;68.11
58092;BME280;43896;48.178;11.578;2022-08-19T12:10:16;95443.94;;;22.40;68.29
58092;BME280;43896;48.178;11.578;2022-08-19T12:12:42;95436.38;;;22.54;68.32
58092;BME280;43896;48.178;11.578;2022-08-19T12:15:11;95453.03;;;22.56;68.72
58092;BME280;43896;48.178;11.578;2022-08-19T12:17:37;95445.22;;;22.55;67.76
58092;BME280;43896;48.178;11.578;2022-08-19T12:20:03;95440.19;;;22.41;67.21
58092;BME280;43896;48.178;11.578;2022-08-19T12:22:29;95458.53;;;22.50;66.97
58092;BME280;43896;48.178;11.578;2022-08-19T12:24:54;95466.31;;;22.34;67.47
58092;BME280;43896;48.178;11.578;2022-08-19T12:27:20;95473.88;;;22.37;68.02
58092;BME280;43896;48.178;11.578;2022-08-19T12:29:45;95463.16;;;22.37;68.01
58092;BME280;43896;48.178;11.578;2022-08-19T12:32:11;95446.94;;;22.15;68.19
58092;BME280;43896;48.178;11.578;2022-08-19T12:34:36;95461.28;;;22.38;67.40
58092;BME280;43896;48.178;11.578;2022-08-19T12:37:04;95458.22;;;22.63;67.57
58092;BME280;43896;48.178;11.578;2022-08-19T12:39:34;95456.31;;;23.31;66.07
58092;BME280;43896;48.178;11.578;2022-08-19T12:41:59;95457.47;;;23.57;63.96
58092;BME280;43896;48.178;11.578;2022-08-19T12:44:25;95467.19;;;23.64;63.97
58092;BME280;43896;48.178;11.578;2022-08-19T12:46:50;95459.97;;;23.64;63.58
58092;BME280;43896;48.178;11.578;2022-08-19T12:49:15;95473.75;;;23.73;62.79
58092;BME280;43896;48.178;11.578;2022-08-19T12:51:41;95465.09;;;23.66;62.85
58092;BME280;43896;48.178;11.578;2022-08-19T12:54:06;95472.56;;;23.64;63.30
58092;BME280;43896;48.178;11.578;2022-08-19T12:56:31;95471.25;;;23.44;62.79
58092;BME280;43896;48.178;11.578;2022-08-19T12:59:01;95474.28;;;23.31;64.00
58092;BME280;43896;48.178;11.578;2022-08-19T13:01:28;95480.97;;;23.72;62.45
58092;BME280;43896;48.178;11.578;2022-08-19T13:03:58;95480.97;;;23.72;61.11
58092;BME280;43896;48.178;11.578;2022-08-19T13:06:23;95465.31;;;23.42;61.45
58092;BME280;43896;48.178;11.578;2022-08-19T13:08:48;95472.28;;;23.21;62.73
58092;BME280;43896;48.178;11.578;2022-08-19T13:11:16;95474.00;;;23.10;64.22
58092;BME280;43896;48.178;11.578;2022-08-19T13:13:44;95476.41;;;22.95;63.31
58092;BME280;43896;48.178;11.578;2022-08-19T13:16:11;95477.13;;;23.63;62.27
58092;BME280;43896;48.178;11.578;2022-08-19T13:18:37;95465.38;;;23.47;61.50
58092;BME280;43896;48.178;11.578;2022-08-19T13:21:04;95478.13;;;23.79;61.65
58092;BME280;43896;48.178;11.578;2022-08-19T13:23:31;95474.00;;;23.71;60.79
58092;BME280;43896;48.178;11.578;2022-08-19T13:26:01;95469.50;;;23.55;62.19
58092;BME280;43896;48.178;11.578;2022-08-19T13:28:27;95458.44;;;23.51;62.80
58092;BME280;43896;48.178;11.578;2022-08-19T13:31:15;95450.03;;;23.65;62.02
58092;BME280;43896;48.178;11.578;2022-08-19T13:33:59;95455.53;;;23.53;63.10
58092;BME280;43896;48.178;11.578;2022-08-19T13:36:25;95467.38;;;23.35;63.25
58092;BME280;43896;48.178;11.578;2022-08-19T13:38:51;95442.31;;;23.07;64.16